createdAt,value
2023-05-09T00:01:47.735Z,1.60
2023-05-09T00:04:16.429Z,1.50
2023-05-09T00:06:44.044Z,1.50
2023-05-09T00:09:11.461Z,1.50
2023-05-09T00:11:38.984Z,1.40
2023-05-09T00:14:06.935Z,1.40
2023-05-09T00:16:34.196Z,1.30
2023-05-09T00:19:01.560Z,1.30
2023-05-09T00:21:28.740Z,1.20
2023-05-09T00:23:56.003Z,1.20
2023-05-09T00:26:23.866Z,1.20
2023-05-09T00:28:51.081Z,1.20
2023-05-09T00:31:18.324Z,1.20
2023-05-09T00:33:45.554Z,1.10
2023-05-09T00:36:12.726Z,1.10
2023-05-09T00:38:39.876Z,1.00
2023-05-09T00:41:07.093Z,1.00
2023-05-09T00:43:34.258Z,1.00
2023-05-09T00:46:01.662Z,0.90
2023-05-09T00:48:28.980Z,0.90
2023-05-09T00:50:56.700Z,0.90
2023-05-09T00:53:25.622Z,0.80
2023-05-09T00:55:53.815Z,0.80
2023-05-09T00:58:21.399Z,0.80
2023-05-09T01:00:48.841Z,0.70
2023-05-09T01:03:16.425Z,0.70
2023-05-09T01:06:03.465Z,0.70
2023-05-09T01:08:44.208Z,0.70
2023-05-09T01:11:13.312Z,0.70
2023-05-09T01:14:21.951Z,0.70
2023-05-09T01:16:55.913Z,0.70
2023-05-09T01:19:57.125Z,0.60
2023-05-09T01:22:32.269Z,0.60
2023-05-09T01:25:15.634Z,0.60
2023-05-09T01:27:58.268Z,0.60
2023-05-09T01:30:26.974Z,0.60
2023-05-09T01:32:59.948Z,0.60
2023-05-09T01:35:29.481Z,0.50
2023-05-09T01:37:58.403Z,0.50
2023-05-09T01:40:29.573Z,0.50
2023-05-09T01:43:02.109Z,0.50
2023-05-09T01:45:30.245Z,0.40
2023-05-09T01:47:58.890Z,0.40
2023-05-09T01:50:29.609Z,0.40
2023-05-09T01:52:57.152Z,0.40
2023-05-09T01:55:27.302Z,0.30
2023-05-09T01:57:55.175Z,0.30
2023-05-09T02:00:24.076Z,0.30
2023-05-09T02:02:53.272Z,0.30
2023-05-09T02:05:22.990Z,0.20
2023-05-09T02:07:50.402Z,0.30
2023-05-09T02:10:18.092Z,0.20
2023-05-09T02:12:45.393Z,0.20
2023-05-09T02:15:12.809Z,0.20
2023-05-09T02:17:40.120Z,0.10
2023-05-09T02:20:10.129Z,0.10
2023-05-09T02:22:38.072Z,0.20
2023-05-09T02:25:07.528Z,0.20
2023-05-09T02:27:35.425Z,0.10
2023-05-09T02:30:07.627Z,0.10
2023-05-09T02:32:36.682Z,0.10
2023-05-09T02:35:04.882Z,0.10
2023-05-09T02:37:33.161Z,0.10
2023-05-09T02:40:00.637Z,0.10
2023-05-09T02:42:30.302Z,0.10
2023-05-09T02:44:57.446Z,0.10
2023-05-09T02:47:25.945Z,0.10
2023-05-09T02:49:53.115Z,0.10
2023-05-09T02:52:20.240Z,0.10
2023-05-09T02:54:48.529Z,0.20
2023-05-09T02:57:15.952Z,0.20
2023-05-09T02:59:43.183Z,0.20
2023-05-09T03:02:10.425Z,0.20
2023-05-09T03:04:37.771Z,0.20
2023-05-09T03:07:05.268Z,0.20
2023-05-09T03:09:32.509Z,0.30
2023-05-09T03:11:59.626Z,0.30
2023-05-09T03:14:26.816Z,0.30
2023-05-09T03:16:54.117Z,0.40
2023-05-09T03:19:21.383Z,0.40
2023-05-09T03:21:48.632Z,0.40
2023-05-09T03:24:16.129Z,0.40
2023-05-09T03:26:43.339Z,0.50
2023-05-09T03:29:10.584Z,0.60
2023-05-09T03:31:37.812Z,0.60
2023-05-09T03:34:04.992Z,0.70
2023-05-09T03:36:32.523Z,0.70
2023-05-09T03:38:59.842Z,0.80
2023-05-09T03:41:27.091Z,0.80
2023-05-09T03:43:54.291Z,0.90
2023-05-09T03:46:21.540Z,0.90
2023-05-09T03:48:48.874Z,1.00
2023-05-09T03:51:16.239Z,1.00
2023-05-09T03:53:46.375Z,1.10
2023-05-09T03:56:14.410Z,1.20
2023-05-09T03:58:41.637Z,1.20
2023-05-09T04:01:08.971Z,1.30
2023-05-09T04:03:37.977Z,1.40
2023-05-09T04:06:06.117Z,1.50
2023-05-09T04:08:33.562Z,1.60
2023-05-09T04:11:00.791Z,1.70
2023-05-09T04:13:30.187Z,1.80
2023-05-09T04:15:57.479Z,1.80
2023-05-09T04:18:24.818Z,2.00
2023-05-09T04:20:52.127Z,2.10
2023-05-09T04:23:19.602Z,2.20
2023-05-09T04:25:46.772Z,2.30
2023-05-09T04:28:13.943Z,2.50
2023-05-09T04:30:41.086Z,2.70
2023-05-09T04:33:08.333Z,2.80
2023-05-09T04:35:35.570Z,3.00
2023-05-09T04:38:03.078Z,3.10
2023-05-09T04:40:30.938Z,3.30
2023-05-09T04:42:59.143Z,3.40
2023-05-09T04:45:26.378Z,3.60
2023-05-09T04:47:53.590Z,3.70
2023-05-09T04:50:21.017Z,3.90
2023-05-09T04:52:48.415Z,4.00
2023-05-09T04:55:16.144Z,4.20
2023-05-09T04:57:43.687Z,4.40
2023-05-09T05:00:12.210Z,4.60
2023-05-09T05:02:39.488Z,4.70
2023-05-09T05:05:12.176Z,4.90
2023-05-09T05:07:40.033Z,5.10
2023-05-09T05:10:07.882Z,5.20
2023-05-09T05:12:35.082Z,5.40
2023-05-09T05:15:02.302Z,5.60
2023-05-09T05:17:29.864Z,5.70
2023-05-09T05:19:57.128Z,5.90
2023-05-09T05:22:24.547Z,6.10
2023-05-09T05:24:51.709Z,6.30
2023-05-09T05:27:18.891Z,6.50
2023-05-09T05:29:46.118Z,6.70
2023-05-09T05:32:13.288Z,6.90
2023-05-09T05:34:40.479Z,7.10
2023-05-09T05:37:07.815Z,7.30
2023-05-09T05:39:34.966Z,7.50
2023-05-09T05:42:02.223Z,7.70
2023-05-09T05:44:29.537Z,7.90
2023-05-09T05:46:56.668Z,8.10
2023-05-09T05:49:25.327Z,8.30
2023-05-09T05:51:52.445Z,8.50
2023-05-09T05:54:19.599Z,8.70
2023-05-09T05:56:46.790Z,8.90
2023-05-09T05:59:13.997Z,9.20
2023-05-09T06:01:41.599Z,9.30
2023-05-09T06:04:08.917Z,9.60
2023-05-09T06:06:36.256Z,9.80
2023-05-09T06:09:03.523Z,10.00
2023-05-09T06:11:30.670Z,10.40
2023-05-09T06:13:57.834Z,10.60
2023-05-09T06:16:25.030Z,10.90
2023-05-09T06:18:53.435Z,11.10
2023-05-09T06:21:22.176Z,11.30
2023-05-09T06:24:04.976Z,11.50
2023-05-09T06:26:35.656Z,11.70
2023-05-09T06:29:03.587Z,11.80
2023-05-09T06:31:31.024Z,11.90
2023-05-09T06:33:58.373Z,12.00
2023-05-09T06:36:25.582Z,12.10
2023-05-09T06:38:52.772Z,12.20
2023-05-09T06:41:19.936Z,12.40
2023-05-09T06:43:47.998Z,12.50
2023-05-09T06:46:15.212Z,12.60
2023-05-09T06:48:42.396Z,12.60
2023-05-09T06:51:09.619Z,12.70
2023-05-09T06:53:36.752Z,12.80
2023-05-09T06:56:04.633Z,12.90
2023-05-09T06:58:31.953Z,13.00
2023-05-09T07:00:59.180Z,13.10
2023-05-09T07:03:26.414Z,13.20
2023-05-09T07:05:55.083Z,13.40
2023-05-09T07:08:22.204Z,13.40
2023-05-09T07:10:49.296Z,13.50
2023-05-09T07:13:16.715Z,13.60
2023-05-09T07:15:44.032Z,13.60
2023-05-09T07:18:11.557Z,13.70
2023-05-09T07:20:38.841Z,13.80
2023-05-09T07:23:06.252Z,13.80
2023-05-09T07:25:33.456Z,13.90
2023-05-09T07:28:00.740Z,14.00
2023-05-09T07:30:27.874Z,14.10
2023-05-09T07:32:55.106Z,14.30
2023-05-09T07:35:22.359Z,14.40
2023-05-09T07:37:49.491Z,14.40
2023-05-09T07:40:17.016Z,14.50
2023-05-09T07:42:50.134Z,14.60
2023-05-09T07:45:18.829Z,14.60
2023-05-09T07:47:47.199Z,14.60
2023-05-09T07:50:14.271Z,14.70
2023-05-09T07:52:41.472Z,14.70
2023-05-09T07:55:08.955Z,14.80
2023-05-09T07:57:36.153Z,14.90
2023-05-09T08:00:03.790Z,14.90
2023-05-09T08:02:31.327Z,15.00
2023-05-09T08:04:58.479Z,15.10
2023-05-09T08:07:26.230Z,15.20
2023-05-09T08:09:53.373Z,15.20
2023-05-09T08:12:20.547Z,15.30
2023-05-09T08:14:47.734Z,15.40
2023-05-09T08:17:14.843Z,15.50
2023-05-09T08:19:42.036Z,15.60
2023-05-09T08:22:09.150Z,15.60
2023-05-09T08:24:36.333Z,15.70
2023-05-09T08:27:03.535Z,15.80
2023-05-09T08:29:31.360Z,16.00
2023-05-09T08:31:58.668Z,16.10
2023-05-09T08:34:26.469Z,16.20
2023-05-09T08:36:53.473Z,16.10
2023-05-09T08:39:20.633Z,16.00
2023-05-09T08:41:47.819Z,16.00
2023-05-09T08:44:15.081Z,16.00
2023-05-09T08:46:44.726Z,16.20
2023-05-09T08:49:12.143Z,16.30
2023-05-09T08:51:40.334Z,16.40
2023-05-09T08:54:08.050Z,16.30
2023-05-09T08:56:36.171Z,16.30
2023-05-09T08:59:05.949Z,16.30
2023-05-09T09:01:36.134Z,16.30
2023-05-09T09:04:06.683Z,16.40
2023-05-09T09:06:34.793Z,16.40
2023-05-09T09:09:02.853Z,16.50
2023-05-09T09:11:31.286Z,16.60
2023-05-09T09:14:02.336Z,16.60
2023-05-09T09:16:29.943Z,16.60
2023-05-09T09:18:59.018Z,16.60
2023-05-09T09:21:26.591Z,16.70
2023-05-09T09:23:56.867Z,16.90
2023-05-09T09:26:25.020Z,16.80
2023-05-09T09:28:52.160Z,16.40
2023-05-09T09:31:21.217Z,16.30
2023-05-09T09:33:48.951Z,16.40
2023-05-09T09:36:16.469Z,16.50
2023-05-09T09:38:44.887Z,16.60
2023-05-09T09:41:13.711Z,16.80
2023-05-09T09:43:46.416Z,17.00
2023-05-09T09:46:17.373Z,17.10
2023-05-09T09:48:51.449Z,17.20
2023-05-09T09:51:19.856Z,17.30
2023-05-09T09:53:47.382Z,17.30
2023-05-09T09:56:14.585Z,17.50
2023-05-09T09:58:41.700Z,17.70
2023-05-09T10:01:17.020Z,17.80
2023-05-09T10:03:48.348Z,18.00
2023-05-09T10:06:17.043Z,18.30
2023-05-09T10:08:49.379Z,18.50
2023-05-09T10:11:16.756Z,18.70
2023-05-09T10:13:44.762Z,19.00
2023-05-09T10:16:13.136Z,18.90
2023-05-09T10:18:43.632Z,18.90
2023-05-09T10:21:12.320Z,18.70
2023-05-09T10:23:45.697Z,18.40
2023-05-09T10:26:27.753Z,18.40
2023-05-09T10:29:00.575Z,18.60
2023-05-09T10:31:29.580Z,18.70
2023-05-09T10:33:57.412Z,18.60
2023-05-09T10:36:25.166Z,18.80
2023-05-09T10:38:55.376Z,18.80
2023-05-09T10:41:23.946Z,18.90
2023-05-09T10:43:51.591Z,19.00
2023-05-09T10:46:19.218Z,19.20
2023-05-09T10:48:48.242Z,19.30
2023-05-09T10:51:16.638Z,19.50
2023-05-09T10:53:45.469Z,19.40
2023-05-09T10:56:32.845Z,19.50
2023-05-09T10:59:00.680Z,19.40
2023-05-09T11:01:37.532Z,19.50
2023-05-09T11:04:16.860Z,19.70
2023-05-09T11:06:51.277Z,20.00
2023-05-09T11:09:35.112Z,20.30
2023-05-09T11:12:10.054Z,20.50
2023-05-09T11:14:45.738Z,20.40
2023-05-09T11:17:33.195Z,20.50
2023-05-09T11:20:03.737Z,20.60
2023-05-09T11:22:37.832Z,20.60
2023-05-09T11:25:09.789Z,20.60
2023-05-09T11:27:52.588Z,20.50
2023-05-09T11:30:20.848Z,20.40
2023-05-09T11:32:52.456Z,20.00
2023-05-09T11:35:22.264Z,19.80
2023-05-09T11:37:52.644Z,19.50
2023-05-09T11:40:21.444Z,19.40
2023-05-09T11:42:55.437Z,19.40
2023-05-09T11:45:27.198Z,19.50
2023-05-09T11:47:54.821Z,19.60
2023-05-09T11:50:22.263Z,19.60
2023-05-09T11:52:50.091Z,19.50
2023-05-09T11:55:19.944Z,19.50
2023-05-09T11:57:52.069Z,19.60
2023-05-09T12:00:20.759Z,19.80
2023-05-09T12:02:48.404Z,20.10
2023-05-09T12:05:20.585Z,20.40
2023-05-09T12:07:48.733Z,20.70
2023-05-09T12:10:19.355Z,21.00
2023-05-09T12:12:47.313Z,21.20
2023-05-09T12:15:15.759Z,21.10
2023-05-09T12:17:45.009Z,20.60
2023-05-09T12:20:12.947Z,20.20
2023-05-09T12:22:43.827Z,20.00
2023-05-09T12:25:12.384Z,20.00
2023-05-09T12:27:41.547Z,20.20
2023-05-09T12:30:14.349Z,20.60
2023-05-09T12:32:42.893Z,21.10
2023-05-09T12:35:11.395Z,21.50
2023-05-09T12:37:39.455Z,21.80
2023-05-09T12:40:13.261Z,22.00
2023-05-09T12:42:44.470Z,22.30
2023-05-09T12:45:12.111Z,22.40
2023-05-09T12:47:41.962Z,22.40
2023-05-09T12:50:14.772Z,22.60
2023-05-09T12:53:01.407Z,22.60
2023-05-09T12:55:31.461Z,22.50
2023-05-09T12:58:00.799Z,22.70
2023-05-09T13:00:28.657Z,23.10
2023-05-09T13:02:56.248Z,23.00
2023-05-09T13:05:24.506Z,22.80
2023-05-09T13:07:56.582Z,23.00
2023-05-09T13:10:26.317Z,23.10
2023-05-09T13:12:53.762Z,23.00
2023-05-09T13:15:26.958Z,23.10
2023-05-09T13:17:54.541Z,23.40
2023-05-09T13:20:21.827Z,23.70
2023-05-09T13:22:49.148Z,23.80
2023-05-09T13:25:17.117Z,23.70
2023-05-09T13:27:44.278Z,24.00
2023-05-09T13:30:13.204Z,24.40
2023-05-09T13:32:40.741Z,25.00
2023-05-09T13:35:08.370Z,25.10
2023-05-09T13:37:36.383Z,25.20
2023-05-09T13:40:04.532Z,25.10
2023-05-09T13:42:33.552Z,24.90
2023-05-09T13:45:01.135Z,24.60
2023-05-09T13:47:28.330Z,24.50
2023-05-09T13:49:55.502Z,24.70
2023-05-09T13:52:23.414Z,25.00
2023-05-09T13:54:50.546Z,25.10
2023-05-09T13:57:17.762Z,25.20
2023-05-09T13:59:44.922Z,25.30
2023-05-09T14:02:12.327Z,25.30
2023-05-09T14:04:39.699Z,25.40
2023-05-09T14:07:07.065Z,25.50
2023-05-09T14:09:40.270Z,25.70
2023-05-09T14:12:08.164Z,25.90
2023-05-09T14:14:35.391Z,26.10
2023-05-09T14:17:03.054Z,26.30
2023-05-09T14:19:33.224Z,26.30
2023-05-09T14:22:00.433Z,26.20
2023-05-09T14:24:30.999Z,25.80
2023-05-09T14:26:58.105Z,25.80
2023-05-09T14:29:25.345Z,25.90
2023-05-09T14:31:52.559Z,26.20
2023-05-09T14:34:19.892Z,26.30
2023-05-09T14:36:47.138Z,26.50
2023-05-09T14:39:14.349Z,26.50
2023-05-09T14:41:41.538Z,26.70
2023-05-09T14:44:08.798Z,26.90
2023-05-09T14:46:37.188Z,27.10
2023-05-09T14:49:04.485Z,27.30
2023-05-09T14:51:33.495Z,27.30
2023-05-09T14:54:03.857Z,27.50
2023-05-09T14:56:31.836Z,27.50
2023-05-09T14:58:58.993Z,27.40
2023-05-09T15:01:26.264Z,27.50
2023-05-09T15:03:53.639Z,27.60
2023-05-09T15:06:20.924Z,27.70
2023-05-09T15:08:48.172Z,27.50
2023-05-09T15:11:15.296Z,27.60
2023-05-09T15:13:42.503Z,27.50
2023-05-09T15:16:09.822Z,27.30
2023-05-09T15:18:37.208Z,27.20
2023-05-09T15:21:04.764Z,26.90
2023-05-09T15:23:32.029Z,26.60
2023-05-09T15:25:59.400Z,26.50
2023-05-09T15:28:26.705Z,26.60
2023-05-09T15:30:54.142Z,26.70
2023-05-09T15:33:21.506Z,26.90
2023-05-09T15:35:50.258Z,27.00
2023-05-09T15:38:17.547Z,27.20
2023-05-09T15:40:44.816Z,27.40
2023-05-09T15:43:13.220Z,27.50
2023-05-09T15:45:45.795Z,27.50
2023-05-09T15:48:14.082Z,27.60
2023-05-09T15:50:45.174Z,27.60
2023-05-09T15:53:12.413Z,27.60
2023-05-09T15:55:39.636Z,27.50
2023-05-09T15:58:08.757Z,27.60
2023-05-09T16:00:35.976Z,27.70
2023-05-09T16:03:03.236Z,27.60
2023-05-09T16:05:30.510Z,27.50
2023-05-09T16:07:57.795Z,27.40
2023-05-09T16:10:25.099Z,27.50
2023-05-09T16:12:52.482Z,27.50
2023-05-09T16:15:19.703Z,27.50
2023-05-09T16:17:46.800Z,27.60
2023-05-09T16:20:14.556Z,27.60
2023-05-09T16:22:42.236Z,27.60
2023-05-09T16:25:09.940Z,27.50
2023-05-09T16:27:37.274Z,27.30
2023-05-09T16:30:05.770Z,27.00
2023-05-09T16:32:33.009Z,26.90
2023-05-09T16:35:00.154Z,26.90
2023-05-09T16:37:29.325Z,26.90
2023-05-09T16:39:56.754Z,27.00
2023-05-09T16:42:23.927Z,27.00
2023-05-09T16:44:51.212Z,26.90
2023-05-09T16:47:18.424Z,26.80
2023-05-09T16:49:45.589Z,26.60
2023-05-09T16:52:12.894Z,26.40
2023-05-09T16:54:40.268Z,26.10
2023-05-09T16:57:07.554Z,25.80
2023-05-09T16:59:35.042Z,25.50
2023-05-09T17:02:02.374Z,25.30
2023-05-09T17:04:29.614Z,25.10
2023-05-09T17:06:56.822Z,24.70
2023-05-09T17:09:24.640Z,24.50
2023-05-09T17:11:52.178Z,24.20
2023-05-09T17:14:19.866Z,23.90
2023-05-09T17:16:47.391Z,23.50
2023-05-09T17:19:16.176Z,23.20
2023-05-09T17:21:43.530Z,22.60
2023-05-09T17:24:10.641Z,22.00
2023-05-09T17:26:39.076Z,21.50
2023-05-09T17:29:06.282Z,21.10
2023-05-09T17:31:33.532Z,20.60
2023-05-09T17:34:01.740Z,20.20
2023-05-09T17:36:28.980Z,19.80
2023-05-09T17:38:56.293Z,19.40
2023-05-09T17:41:24.583Z,19.00
2023-05-09T17:43:56.442Z,18.50
2023-05-09T17:46:24.088Z,18.20
2023-05-09T17:48:51.686Z,17.90
2023-05-09T17:51:18.873Z,17.60
2023-05-09T17:53:46.942Z,17.20
2023-05-09T17:56:14.153Z,17.00
2023-05-09T17:58:41.275Z,16.70
2023-05-09T18:01:09.696Z,16.40
2023-05-09T18:03:36.985Z,16.10
2023-05-09T18:06:04.728Z,15.80
2023-05-09T18:08:31.786Z,15.40
2023-05-09T18:10:59.194Z,15.10
2023-05-09T18:13:26.604Z,14.90
2023-05-09T18:15:59.667Z,14.60
2023-05-09T18:18:32.667Z,14.40
2023-05-09T18:20:59.891Z,14.10
2023-05-09T18:23:27.927Z,13.80
2023-05-09T18:25:55.323Z,13.60
2023-05-09T18:28:25.489Z,13.40
2023-05-09T18:30:54.842Z,13.20
2023-05-09T18:33:28.552Z,13.00
2023-05-09T18:35:56.061Z,12.80
2023-05-09T18:38:23.931Z,12.60
2023-05-09T18:40:52.393Z,12.40
2023-05-09T18:43:21.669Z,12.20
2023-05-09T18:45:49.456Z,12.00
2023-05-09T18:48:17.299Z,11.80
2023-05-09T18:50:45.019Z,11.70
2023-05-09T18:53:12.658Z,11.50
2023-05-09T18:55:40.377Z,11.40
2023-05-09T18:58:07.607Z,11.20
2023-05-09T19:00:35.905Z,11.00
2023-05-09T19:03:03.144Z,11.00
2023-05-09T19:05:30.655Z,10.80
2023-05-09T19:07:57.852Z,10.70
2023-05-09T19:10:25.085Z,10.60
2023-05-09T19:12:52.460Z,10.50
2023-05-09T19:15:20.071Z,10.40
2023-05-09T19:17:47.235Z,10.30
2023-05-09T19:20:14.546Z,10.20
2023-05-09T19:22:45.790Z,10.10
2023-05-09T19:25:13.011Z,10.00
2023-05-09T19:27:40.102Z,9.90
2023-05-09T19:30:07.963Z,9.80
2023-05-09T19:32:35.212Z,9.70
2023-05-09T19:35:02.437Z,9.60
2023-05-09T19:37:29.715Z,9.40
2023-05-09T19:39:56.803Z,9.40
2023-05-09T19:42:23.930Z,9.20
2023-05-09T19:44:52.670Z,9.20
2023-05-09T19:47:20.547Z,9.00
2023-05-09T19:49:47.668Z,9.00
2023-05-09T19:52:14.821Z,9.00
2023-05-09T19:54:42.433Z,8.90
2023-05-09T19:57:10.707Z,8.90
2023-05-09T19:59:37.875Z,8.80
2023-05-09T20:02:05.160Z,8.70
2023-05-09T20:04:35.497Z,8.70
2023-05-09T20:07:03.387Z,8.60
2023-05-09T20:09:32.468Z,8.50
2023-05-09T20:12:02.083Z,8.50
2023-05-09T20:14:29.373Z,8.40
2023-05-09T20:16:57.130Z,8.40
2023-05-09T20:19:24.427Z,8.30
2023-05-09T20:21:51.619Z,8.20
2023-05-09T20:24:18.663Z,8.20
2023-05-09T20:26:45.819Z,8.10
2023-05-09T20:29:13.018Z,8.00
2023-05-09T20:31:40.335Z,8.00
2023-05-09T20:34:10.824Z,7.90
2023-05-09T20:36:38.475Z,7.80
2023-05-09T20:39:05.599Z,7.70
2023-05-09T20:41:35.009Z,7.70
2023-05-09T20:44:04.447Z,7.60
2023-05-09T20:46:31.682Z,7.50
2023-05-09T20:48:58.833Z,7.40
2023-05-09T20:51:26.162Z,7.30
2023-05-09T20:53:53.213Z,7.20
2023-05-09T20:56:20.275Z,7.20
2023-05-09T20:59:04.174Z,7.00
2023-05-09T21:01:34.503Z,6.90
2023-05-09T21:04:01.897Z,6.80
2023-05-09T21:06:29.163Z,6.70
2023-05-09T21:08:56.385Z,6.70
2023-05-09T21:11:23.641Z,6.60
2023-05-09T21:13:50.944Z,6.60
2023-05-09T21:16:18.190Z,6.50
2023-05-09T21:18:45.351Z,6.40
2023-05-09T21:21:12.626Z,6.30
2023-05-09T21:23:39.738Z,6.30
2023-05-09T21:26:06.883Z,6.30
2023-05-09T21:28:34.016Z,6.20
2023-05-09T21:31:01.919Z,6.10
2023-05-09T21:33:29.812Z,6.10
2023-05-09T21:35:57.413Z,6.00
2023-05-09T21:38:24.453Z,6.00
2023-05-09T21:40:51.818Z,5.90
2023-05-09T21:43:19.366Z,5.90
2023-05-09T21:45:46.590Z,5.80
2023-05-09T21:48:13.994Z,5.70
2023-05-09T21:50:43.837Z,5.70
2023-05-09T21:53:11.040Z,5.60
2023-05-09T21:55:38.231Z,5.50
2023-05-09T21:58:05.517Z,5.50
2023-05-09T22:00:32.738Z,5.50
2023-05-09T22:02:59.963Z,5.50
2023-05-09T22:05:27.237Z,5.40
2023-05-09T22:07:54.376Z,5.40
2023-05-09T22:10:21.534Z,5.40
2023-05-09T22:12:48.765Z,5.40
2023-05-09T22:15:15.926Z,5.40
2023-05-09T22:17:43.160Z,5.40
2023-05-09T22:20:10.973Z,5.30
2023-05-09T22:23:02.817Z,5.20
2023-05-09T22:25:29.976Z,5.20
2023-05-09T22:27:57.272Z,5.10
2023-05-09T22:30:25.028Z,5.00
2023-05-09T22:32:52.226Z,4.90
2023-05-09T22:35:19.436Z,4.90
2023-05-09T22:37:46.829Z,4.80
2023-05-09T22:40:14.255Z,4.70
2023-05-09T22:42:41.497Z,4.60
2023-05-09T22:45:09.124Z,4.60
2023-05-09T22:47:36.840Z,4.50
2023-05-09T22:50:04.319Z,4.50
2023-05-09T22:52:31.813Z,4.50
2023-05-09T22:54:59.058Z,4.50
2023-05-09T22:57:26.325Z,4.30
2023-05-09T22:59:54.048Z,4.30
2023-05-09T23:02:21.474Z,4.20
2023-05-09T23:04:48.828Z,4.20
2023-05-09T23:07:16.402Z,4.20
2023-05-09T23:09:43.726Z,4.20
2023-05-09T23:12:10.994Z,4.10
2023-05-09T23:14:38.271Z,4.10
2023-05-09T23:17:05.479Z,4.10
2023-05-09T23:19:33.097Z,4.00
2023-05-09T23:22:00.267Z,4.00
2023-05-09T23:24:27.540Z,3.90
2023-05-09T23:26:54.789Z,3.90
2023-05-09T23:29:22.218Z,3.90
2023-05-09T23:31:49.760Z,3.90
2023-05-09T23:34:17.676Z,3.90
2023-05-09T23:36:44.814Z,3.90
2023-05-09T23:39:12.354Z,3.90
2023-05-09T23:41:39.533Z,3.80
2023-05-09T23:44:07.854Z,3.80
2023-05-09T23:46:35.168Z,3.80
2023-05-09T23:49:02.362Z,3.80
2023-05-09T23:51:29.515Z,3.80
2023-05-09T23:53:57.298Z,3.70
2023-05-09T23:56:25.381Z,3.70
2023-05-09T23:58:52.673Z,3.70
